createdAt,value
2019-01-19T00:01:48.249Z,-0.40
2019-01-19T00:05:02.549Z,-0.40
2019-01-19T00:08:02.175Z,-0.50
2019-01-19T00:11:33.416Z,-0.40
2019-01-19T00:14:24.482Z,-0.50
2019-01-19T00:17:49.665Z,-0.50
2019-01-19T00:21:00.826Z,-0.50
2019-01-19T00:23:54.261Z,-0.50
2019-01-19T00:26:53.479Z,-0.50
2019-01-19T00:30:15.125Z,-0.50
2019-01-19T00:33:17.629Z,-0.50
2019-01-19T00:36:16.800Z,-0.50
2019-01-19T00:39:40.404Z,-0.60
2019-01-19T00:42:34.398Z,-0.60
2019-01-19T00:46:01.051Z,-0.50
2019-01-19T00:49:00.671Z,-0.60
2019-01-19T00:52:24.262Z,-0.60
2019-01-19T00:55:25.946Z,-0.60
2019-01-19T00:58:27.801Z,-0.70
2019-01-19T01:01:29.623Z,-0.70
2019-01-19T01:04:35.194Z,-0.70
2019-01-19T01:07:46.336Z,-0.70
2019-01-19T01:10:57.309Z,-0.70
2019-01-19T01:13:56.607Z,-0.80
2019-01-19T01:16:58.820Z,-0.70
2019-01-19T01:20:24.659Z,-0.70
2019-01-19T01:23:39.269Z,-0.80
2019-01-19T01:26:53.801Z,-0.80
2019-01-19T01:29:56.032Z,-0.80
2019-01-19T01:33:20.840Z,-0.70
2019-01-19T01:36:17.771Z,-0.70
2019-01-19T01:39:17.097Z,-0.60
2019-01-19T01:42:26.158Z,-0.70
2019-01-19T01:45:40.583Z,-0.80
2019-01-19T01:48:48.848Z,-0.80
2019-01-19T01:51:57.199Z,-0.90
2019-01-19T01:55:09.720Z,-0.80
2019-01-19T01:58:09.193Z,-0.80
2019-01-19T02:01:23.257Z,-0.80
2019-01-19T02:04:47.335Z,-0.70
2019-01-19T02:07:49.350Z,-0.80
2019-01-19T02:10:57.665Z,-0.80
2019-01-19T02:13:53.538Z,-0.80
2019-01-19T02:17:13.390Z,-0.80
2019-01-19T02:20:15.512Z,-0.80
2019-01-19T02:23:43.597Z,-0.90
2019-01-19T02:27:01.302Z,-0.90
2019-01-19T02:30:03.239Z,-0.90
2019-01-19T02:33:05.277Z,-0.90
2019-01-19T02:36:18.756Z,-0.80
2019-01-19T02:39:38.845Z,-0.90
2019-01-19T02:42:49.675Z,-0.90
2019-01-19T02:45:52.342Z,-0.90
2019-01-19T02:49:31.927Z,-0.90
2019-01-19T02:52:46.540Z,-0.90
2019-01-19T02:55:55.039Z,-0.90
2019-01-19T02:58:58.238Z,-1.00
2019-01-19T03:02:17.504Z,-0.90
2019-01-19T03:05:20.293Z,-0.90
2019-01-19T03:08:29.070Z,-1.00
2019-01-19T03:11:36.823Z,-1.00
2019-01-19T03:14:45.027Z,-1.00
2019-01-19T03:18:12.322Z,-0.90
2019-01-19T03:21:26.679Z,-1.00
2019-01-19T03:24:20.457Z,-1.00
2019-01-19T03:27:37.761Z,-1.00
2019-01-19T03:30:48.721Z,-1.10
2019-01-19T03:34:00.512Z,-1.10
2019-01-19T03:36:59.784Z,-1.10
2019-01-19T03:40:13.045Z,-1.10
2019-01-19T03:43:12.423Z,-1.10
2019-01-19T03:46:23.945Z,-1.10
2019-01-19T03:49:29.218Z,-1.20
2019-01-19T03:52:34.415Z,-1.10
2019-01-19T03:55:56.183Z,-1.20
2019-01-19T03:59:19.158Z,-1.20
2019-01-19T04:02:28.981Z,-1.20
2019-01-19T04:05:43.359Z,-1.10
2019-01-19T04:08:54.821Z,-1.10
2019-01-19T04:11:48.806Z,-1.10
2019-01-19T04:15:01.489Z,-1.20
2019-01-19T04:18:03.401Z,-1.10
2019-01-19T04:21:11.525Z,-1.10
2019-01-19T04:24:04.902Z,-1.20
2019-01-19T04:26:53.858Z,-1.20
2019-01-19T04:29:42.267Z,-1.20
2019-01-19T04:32:30.950Z,-1.20
2019-01-19T04:35:19.744Z,-1.20
2019-01-19T04:38:08.919Z,-1.10
2019-01-19T04:40:57.919Z,-1.10
2019-01-19T04:43:46.699Z,-1.10
2019-01-19T04:46:35.696Z,-1.10
2019-01-19T04:49:24.211Z,-1.00
2019-01-19T04:52:13.256Z,-1.10
2019-01-19T04:55:02.236Z,-1.10
2019-01-19T04:57:51.027Z,-1.10
2019-01-19T05:00:39.841Z,-1.10
2019-01-19T05:03:28.694Z,-1.10
2019-01-19T05:06:18.202Z,-1.20
2019-01-19T05:09:07.935Z,-1.20
2019-01-19T05:11:56.959Z,-1.20
2019-01-19T05:14:45.611Z,-1.20
2019-01-19T05:17:34.316Z,-1.10
2019-01-19T05:20:22.612Z,-1.20
2019-01-19T05:23:10.982Z,-1.20
2019-01-19T05:26:00.121Z,-1.30
2019-01-19T05:28:49.049Z,-1.20
2019-01-19T05:31:38.171Z,-1.30
2019-01-19T05:34:26.886Z,-1.20
2019-01-19T05:37:16.101Z,-1.20
2019-01-19T05:40:08.639Z,-1.20
2019-01-19T05:42:57.413Z,-1.20
2019-01-19T05:45:46.474Z,-1.30
2019-01-19T05:48:35.557Z,-1.20
2019-01-19T05:51:24.502Z,-1.10
2019-01-19T05:54:13.722Z,-1.20
2019-01-19T05:57:03.046Z,-1.20
2019-01-19T05:59:52.061Z,-1.20
2019-01-19T06:02:40.410Z,-1.20
2019-01-19T06:05:29.526Z,-1.20
2019-01-19T06:08:18.619Z,-1.20
2019-01-19T06:11:08.030Z,-1.20
2019-01-19T06:13:56.720Z,-1.30
2019-01-19T06:16:45.466Z,-1.20
2019-01-19T06:19:34.684Z,-1.30
2019-01-19T06:22:24.363Z,-1.20
2019-01-19T06:25:15.402Z,-1.20
2019-01-19T06:28:04.508Z,-1.20
2019-01-19T06:30:52.898Z,-1.20
2019-01-19T06:33:42.619Z,-1.20
2019-01-19T06:36:31.017Z,-1.20
2019-01-19T06:39:19.818Z,-1.20
2019-01-19T06:42:08.999Z,-1.20
2019-01-19T06:44:58.447Z,-1.10
2019-01-19T06:47:47.613Z,-1.20
2019-01-19T06:50:36.784Z,-1.20
2019-01-19T06:53:25.714Z,-1.20
2019-01-19T06:56:14.981Z,-1.20
2019-01-19T06:59:04.090Z,-1.20
2019-01-19T07:01:53.189Z,-1.20
2019-01-19T07:04:41.981Z,-1.20
2019-01-19T07:07:30.546Z,-1.10
2019-01-19T07:10:25.342Z,-1.20
2019-01-19T07:13:13.985Z,-1.10
2019-01-19T07:16:03.057Z,-1.20
2019-01-19T07:18:51.902Z,-1.10
2019-01-19T07:21:40.931Z,-1.10
2019-01-19T07:24:30.007Z,-1.10
2019-01-19T07:27:19.219Z,-1.10
2019-01-19T07:30:15.255Z,-1.10
2019-01-19T07:33:04.129Z,-1.10
2019-01-19T07:35:52.933Z,-1.00
2019-01-19T07:38:41.325Z,-1.00
2019-01-19T07:41:30.127Z,-1.00
2019-01-19T07:44:19.254Z,-0.90
2019-01-19T07:47:08.475Z,-0.90
2019-01-19T07:49:57.551Z,-0.90
2019-01-19T07:52:46.751Z,-0.90
2019-01-19T07:55:36.155Z,-0.90
2019-01-19T07:58:25.029Z,-0.90
2019-01-19T08:01:13.306Z,-0.80
2019-01-19T08:04:02.190Z,-0.80
2019-01-19T08:06:52.220Z,-0.70
2019-01-19T08:09:41.578Z,-0.70
2019-01-19T08:12:30.705Z,-0.60
2019-01-19T08:15:29.506Z,-0.50
2019-01-19T08:18:19.096Z,-0.40
2019-01-19T08:21:07.546Z,-0.30
2019-01-19T08:23:55.793Z,-0.20
2019-01-19T08:26:43.189Z,-0.10
2019-01-19T08:29:32.046Z,-0.20
2019-01-19T08:32:20.459Z,0.10
2019-01-19T08:35:10.674Z,0.40
2019-01-19T08:37:59.456Z,0.20
2019-01-19T08:40:48.360Z,0.40
2019-01-19T08:43:38.777Z,0.70
2019-01-19T08:46:26.888Z,0.70
2019-01-19T08:49:15.099Z,0.70
2019-01-19T08:52:03.265Z,0.70
2019-01-19T08:54:51.633Z,0.60
2019-01-19T08:57:39.562Z,0.70
2019-01-19T09:00:27.670Z,0.80
2019-01-19T09:03:15.743Z,0.80
2019-01-19T09:06:03.420Z,0.80
2019-01-19T09:08:51.360Z,0.90
2019-01-19T09:11:39.040Z,1.10
2019-01-19T09:14:27.011Z,1.10
2019-01-19T09:17:14.540Z,1.20
2019-01-19T09:20:02.641Z,1.30
2019-01-19T09:22:52.054Z,1.30
2019-01-19T09:25:40.269Z,1.40
2019-01-19T09:28:27.974Z,1.40
2019-01-19T09:31:15.858Z,1.40
2019-01-19T09:34:03.921Z,1.40
2019-01-19T09:36:52.104Z,1.60
2019-01-19T09:39:40.107Z,1.70
2019-01-19T09:42:28.326Z,1.80
2019-01-19T09:45:17.735Z,1.70
2019-01-19T09:48:05.767Z,1.70
2019-01-19T09:50:53.802Z,1.80
2019-01-19T09:53:41.845Z,1.80
2019-01-19T09:56:29.867Z,1.90
2019-01-19T09:59:18.039Z,1.90
2019-01-19T10:02:06.056Z,1.80
2019-01-19T10:04:53.838Z,1.80
2019-01-19T10:07:48.262Z,1.80
2019-01-19T10:10:31.027Z,1.80
2019-01-19T10:13:19.111Z,1.90
2019-01-19T10:16:07.375Z,1.90
2019-01-19T10:18:55.622Z,1.90
2019-01-19T10:21:43.567Z,1.90
2019-01-19T10:24:31.580Z,2.00
2019-01-19T10:27:19.768Z,2.00
2019-01-19T10:30:19.841Z,2.10
2019-01-19T10:33:07.834Z,2.20
2019-01-19T10:35:56.295Z,2.20
2019-01-19T10:38:44.368Z,2.30
2019-01-19T10:41:33.155Z,2.40
2019-01-19T10:44:20.699Z,2.40
2019-01-19T10:47:09.790Z,2.50
2019-01-19T10:49:58.711Z,2.60
2019-01-19T10:52:46.940Z,2.70
2019-01-19T10:55:35.712Z,2.80
2019-01-19T10:58:24.591Z,2.70
2019-01-19T11:01:13.313Z,2.60
2019-01-19T11:04:03.202Z,2.70
2019-01-19T11:06:51.866Z,2.80
2019-01-19T11:09:40.564Z,2.80
2019-01-19T11:12:29.195Z,2.80
2019-01-19T11:15:19.586Z,2.80
2019-01-19T11:18:09.028Z,2.80
2019-01-19T11:20:57.337Z,2.90
2019-01-19T11:23:46.291Z,2.90
2019-01-19T11:26:35.144Z,3.10
2019-01-19T11:29:22.767Z,3.20
2019-01-19T11:32:11.123Z,3.30
2019-01-19T11:34:58.832Z,3.30
2019-01-19T11:37:46.935Z,3.50
2019-01-19T11:40:36.799Z,3.50
2019-01-19T11:43:24.638Z,3.50
2019-01-19T11:46:12.700Z,3.60
2019-01-19T11:49:00.998Z,3.60
2019-01-19T11:51:48.881Z,3.70
2019-01-19T11:54:37.219Z,3.70
2019-01-19T11:57:24.870Z,3.80
2019-01-19T12:00:18.301Z,3.70
2019-01-19T12:03:06.300Z,3.70
2019-01-19T12:05:54.571Z,3.80
2019-01-19T12:08:42.535Z,3.80
2019-01-19T12:11:30.885Z,3.90
2019-01-19T12:14:18.942Z,3.80
2019-01-19T12:17:06.616Z,3.80
2019-01-19T12:19:54.474Z,3.80
2019-01-19T12:22:42.272Z,3.80
2019-01-19T12:25:30.259Z,3.80
2019-01-19T12:28:17.850Z,3.90
2019-01-19T12:31:05.927Z,3.80
2019-01-19T12:33:54.133Z,3.80
2019-01-19T12:36:41.845Z,3.80
2019-01-19T12:39:29.894Z,3.90
2019-01-19T12:42:18.255Z,3.90
2019-01-19T12:45:09.423Z,4.00
2019-01-19T12:47:57.706Z,4.00
2019-01-19T12:50:45.734Z,3.90
2019-01-19T12:53:33.856Z,3.80
2019-01-19T12:56:21.661Z,3.90
2019-01-19T12:59:09.800Z,3.90
2019-01-19T13:01:57.453Z,3.80
2019-01-19T13:04:45.255Z,3.90
2019-01-19T13:07:32.765Z,3.80
2019-01-19T13:10:39.150Z,3.70
2019-01-19T13:13:27.511Z,3.70
2019-01-19T13:16:30.391Z,3.80
2019-01-19T13:19:29.560Z,3.80
2019-01-19T13:22:43.015Z,3.80
2019-01-19T13:25:52.561Z,3.80
2019-01-19T13:28:46.562Z,3.90
2019-01-19T13:31:49.655Z,3.80
2019-01-19T13:34:55.210Z,3.70
2019-01-19T13:37:55.283Z,3.70
2019-01-19T13:41:11.759Z,3.70
2019-01-19T13:44:21.205Z,3.60
2019-01-19T13:47:18.153Z,3.60
2019-01-19T13:50:17.996Z,3.60
2019-01-19T13:53:33.560Z,3.60
2019-01-19T13:56:33.306Z,3.60
2019-01-19T13:59:39.431Z,3.50
2019-01-19T14:02:54.268Z,3.50
2019-01-19T14:06:05.979Z,3.50
2019-01-19T14:08:59.465Z,3.40
2019-01-19T14:12:02.020Z,3.40
2019-01-19T14:15:01.931Z,3.40
2019-01-19T14:17:59.377Z,3.30
2019-01-19T14:21:24.929Z,3.30
2019-01-19T14:24:22.061Z,3.30
2019-01-19T14:27:31.397Z,3.20
2019-01-19T14:30:43.133Z,3.20
2019-01-19T14:33:39.705Z,3.20
2019-01-19T14:36:43.037Z,3.20
2019-01-19T14:39:48.632Z,3.10
2019-01-19T14:42:49.222Z,3.00
2019-01-19T14:45:48.778Z,2.90
2019-01-19T14:49:04.804Z,2.90
2019-01-19T14:52:01.854Z,2.80
2019-01-19T14:54:55.031Z,2.70
2019-01-19T14:57:54.912Z,2.70
2019-01-19T15:00:51.995Z,2.60
2019-01-19T15:03:43.227Z,2.60
2019-01-19T15:06:37.423Z,2.50
2019-01-19T15:09:42.947Z,2.50
2019-01-19T15:12:36.704Z,2.40
2019-01-19T15:15:34.168Z,2.50
2019-01-19T15:18:31.432Z,2.40
2019-01-19T15:21:39.006Z,2.40
2019-01-19T15:24:35.941Z,2.30
2019-01-19T15:27:30.243Z,2.30
2019-01-19T15:30:38.578Z,2.10
2019-01-19T15:33:57.686Z,2.10
2019-01-19T15:37:01.146Z,2.00
2019-01-19T15:39:55.389Z,1.80
2019-01-19T15:43:17.874Z,1.80
2019-01-19T15:46:37.016Z,1.90
2019-01-19T15:49:59.496Z,1.80
2019-01-19T15:53:01.450Z,1.70
2019-01-19T15:56:28.735Z,1.70
2019-01-19T15:59:39.723Z,1.50
2019-01-19T16:02:50.378Z,1.50
2019-01-19T16:06:18.361Z,1.40
2019-01-19T16:09:35.355Z,1.40
2019-01-19T16:12:35.349Z,1.40
2019-01-19T16:16:02.159Z,1.30
2019-01-19T16:19:10.244Z,1.40
2019-01-19T16:22:33.677Z,1.40
2019-01-19T16:25:41.699Z,1.40
2019-01-19T16:28:43.530Z,1.30
2019-01-19T16:32:07.761Z,1.20
2019-01-19T16:35:21.462Z,1.30
2019-01-19T16:38:17.667Z,1.20
2019-01-19T16:41:19.587Z,1.10
2019-01-19T16:44:45.846Z,1.20
2019-01-19T16:47:54.211Z,1.10
2019-01-19T16:50:53.254Z,1.00
2019-01-19T16:53:56.479Z,0.90
2019-01-19T16:57:07.840Z,1.00
2019-01-19T17:00:04.011Z,1.00
2019-01-19T17:03:12.596Z,1.00
2019-01-19T17:06:11.426Z,1.00
2019-01-19T17:09:04.776Z,1.10
2019-01-19T17:12:20.647Z,0.90
2019-01-19T17:15:38.244Z,0.90
2019-01-19T17:18:41.645Z,0.80
2019-01-19T17:22:02.194Z,0.80
2019-01-19T17:25:17.708Z,0.90
2019-01-19T17:28:13.778Z,0.80
2019-01-19T17:31:33.944Z,0.80
2019-01-19T17:34:47.315Z,0.80
2019-01-19T17:37:58.190Z,0.80
2019-01-19T17:41:03.351Z,0.70
2019-01-19T17:44:11.178Z,0.70
2019-01-19T17:47:07.718Z,0.70
2019-01-19T17:50:03.387Z,0.60
2019-01-19T17:52:59.629Z,0.70
2019-01-19T17:56:01.763Z,0.70
2019-01-19T17:59:06.850Z,0.60
2019-01-19T18:02:17.912Z,0.60
2019-01-19T18:05:25.930Z,0.60
2019-01-19T18:08:34.527Z,0.60
2019-01-19T18:11:47.584Z,0.50
2019-01-19T18:15:15.059Z,0.50
2019-01-19T18:18:17.028Z,0.50
2019-01-19T18:21:34.435Z,0.50
2019-01-19T18:24:37.275Z,0.40
2019-01-19T18:27:39.960Z,0.50
2019-01-19T18:30:46.077Z,0.50
2019-01-19T18:33:45.317Z,0.50
2019-01-19T18:36:53.826Z,0.40
2019-01-19T18:39:54.830Z,0.50
2019-01-19T18:42:49.938Z,0.50
2019-01-19T18:46:00.807Z,0.40
2019-01-19T18:49:09.454Z,0.30
2019-01-19T18:52:17.233Z,0.30
2019-01-19T18:55:19.344Z,0.30
2019-01-19T18:58:33.808Z,0.30
2019-01-19T19:01:39.491Z,0.20
2019-01-19T19:04:59.668Z,0.20
2019-01-19T19:08:01.072Z,0.20
2019-01-19T19:10:55.261Z,0.20
2019-01-19T19:13:54.811Z,0.10
2019-01-19T19:17:12.190Z,0.20
2019-01-19T19:20:11.459Z,0.10
2019-01-19T19:23:16.618Z,0.10
2019-01-19T19:26:19.375Z,0.00
2019-01-19T19:29:45.855Z,0.00
2019-01-19T19:32:39.799Z,0.00
2019-01-19T19:36:06.616Z,-0.10
2019-01-19T19:39:35.616Z,-0.10
2019-01-19T19:42:53.013Z,-0.10
2019-01-19T19:46:13.452Z,-0.10
2019-01-19T19:49:25.449Z,-0.20
2019-01-19T19:52:14.675Z,-0.20
2019-01-19T19:55:01.558Z,-0.30
2019-01-19T19:57:50.443Z,-0.20
2019-01-19T20:00:40.058Z,-0.30
2019-01-19T20:03:29.014Z,-0.30
2019-01-19T20:06:17.858Z,-0.30
2019-01-19T20:09:09.902Z,-0.30
2019-01-19T20:11:59.386Z,-0.30
2019-01-19T20:14:48.083Z,-0.40
2019-01-19T20:17:37.085Z,-0.40
2019-01-19T20:20:26.007Z,-0.40
2019-01-19T20:23:15.059Z,-0.40
2019-01-19T20:26:04.243Z,-0.40
2019-01-19T20:28:53.663Z,-0.40
2019-01-19T20:31:42.728Z,-0.40
2019-01-19T20:34:31.165Z,-0.40
2019-01-19T20:37:20.197Z,-0.50
2019-01-19T20:40:11.047Z,-0.40
2019-01-19T20:43:00.186Z,-0.40
2019-01-19T20:45:48.844Z,-0.50
2019-01-19T20:48:37.326Z,-0.50
2019-01-19T20:51:25.966Z,-0.50
2019-01-19T20:54:14.392Z,-0.50
2019-01-19T20:57:03.531Z,-0.50
2019-01-19T20:59:52.656Z,-0.50
2019-01-19T21:02:41.675Z,-0.50
2019-01-19T21:05:30.742Z,-0.50
2019-01-19T21:08:19.893Z,-0.50
2019-01-19T21:11:08.250Z,-0.50
2019-01-19T21:13:55.905Z,-0.50
2019-01-19T21:16:43.807Z,-0.50
2019-01-19T21:19:31.915Z,-0.50
2019-01-19T21:22:20.729Z,-0.50
2019-01-19T21:25:12.078Z,-0.50
2019-01-19T21:28:00.714Z,-0.40
2019-01-19T21:30:49.607Z,-0.40
2019-01-19T21:33:38.726Z,-0.50
2019-01-19T21:36:27.939Z,-0.50
2019-01-19T21:39:17.208Z,-0.50
2019-01-19T21:42:06.431Z,-0.50
2019-01-19T21:44:54.467Z,-0.60
2019-01-19T21:47:43.086Z,-0.60
2019-01-19T21:50:31.573Z,-0.50
2019-01-19T21:53:20.684Z,-0.70
2019-01-19T21:56:08.606Z,-0.60
2019-01-19T21:58:57.448Z,-0.70
2019-01-19T22:01:46.559Z,-0.60
2019-01-19T22:04:34.414Z,-0.70
2019-01-19T22:07:22.423Z,-0.70
2019-01-19T22:10:13.525Z,-0.70
2019-01-19T22:13:01.996Z,-0.70
2019-01-19T22:15:52.488Z,-0.70
2019-01-19T22:18:40.577Z,-0.70
2019-01-19T22:21:28.689Z,-0.70
2019-01-19T22:24:19.702Z,-0.70
2019-01-19T22:27:09.459Z,-0.80
2019-01-19T22:29:58.544Z,-0.80
2019-01-19T22:32:48.373Z,-0.80
2019-01-19T22:35:37.176Z,-0.80
2019-01-19T22:38:26.332Z,-0.80
2019-01-19T22:41:15.682Z,-0.80
2019-01-19T22:44:05.412Z,-0.90
2019-01-19T22:46:53.848Z,-0.90
2019-01-19T22:49:43.068Z,-0.90
2019-01-19T22:52:31.860Z,-1.00
2019-01-19T22:55:21.480Z,-1.00
2019-01-19T22:58:10.869Z,-1.00
2019-01-19T23:01:12.180Z,-1.00
2019-01-19T23:04:00.011Z,-1.00
2019-01-19T23:06:48.093Z,-1.10
2019-01-19T23:09:36.125Z,-1.10
2019-01-19T23:12:24.424Z,-1.00
2019-01-19T23:15:12.760Z,-1.00
2019-01-19T23:18:00.919Z,-1.10
2019-01-19T23:20:48.681Z,-1.00
2019-01-19T23:23:37.033Z,-1.10
2019-01-19T23:26:25.096Z,-1.10
2019-01-19T23:29:12.572Z,-1.00
2019-01-19T23:32:00.574Z,-1.10
2019-01-19T23:34:48.863Z,-1.10
2019-01-19T23:37:37.036Z,-1.10
2019-01-19T23:40:25.023Z,-1.10
2019-01-19T23:43:12.939Z,-1.10
2019-01-19T23:46:01.258Z,-1.00
2019-01-19T23:48:48.884Z,-1.10
2019-01-19T23:51:37.120Z,-1.10
2019-01-19T23:54:24.872Z,-1.10
2019-01-19T23:57:13.103Z,-1.20
